Big Bear Station Historical Data
Daily Summary for March 19, 2019 Units:  Both    English   Metric
Next Day »
Daily Weekly Monthly Yearly Custom
  High: Low: Average:
Temperature: 56.8 °F /  13.8 °C 28.0 °F /  -2.2 °C 39.7 °F /  4.3 °C
Dew Point: 41.8 °F /  5.4 °C 24.8 °F /  -4 °C 31.9 °F /  -0.1 °C
Humidity: 99% 41% 77%
Wind Speed: 5.8mph /  9.3km/h - 1.1mph /  1.8km/h
Wind Gust: -999.0mph /  -1607.7km/h - -
Wind- - SSW
Pressure: 23.52 in /  796.4 hPa 23.40 in /  792.3 hPa -
Precipitation: 0.00 in /  0 mm    
Historical Graphs
 
 
Tabular Data for March 19, 2019
Time Temperature Dew Point Pressure Wind Wind Speed Wind Gust Humidity Rainfall Rate (Hourly)
00:10 32.2 °F /  0.1 °C 30.1 °F /  -1.1 °C 23.52in /  796.4hPa Calm   -999.0mph /  -1607.7km/h 92% 0.00in /  0mm
00:26 31.8 °F /  -0.1 °C 30.0 °F /  -1.1 °C 23.52in /  796.4hPa Calm   -999.0mph /  -1607.7km/h 93% 0.00in /  0mm
00:41 31.8 °F /  -0.1 °C 30.0 °F /  -1.1 °C 23.51in /  796hPa Calm   -999.0mph /  -1607.7km/h 93% 0.00in /  0mm
00:56 31.5 °F /  -0.3 °C 30.0 °F /  -1.1 °C 23.51in /  796hPa Calm   -999.0mph /  -1607.7km/h 94% 0.00in /  0mm
01:11 31.1 °F /  -0.5 °C 29.6 °F /  -1.3 °C 23.51in /  796hPa Calm   -999.0mph /  -1607.7km/h 94% 0.00in /  0mm
01:26 30.9 °F /  -0.6 °C 29.4 °F /  -1.4 °C 23.51in /  796hPa Calm   -999.0mph /  -1607.7km/h 94% 0.00in /  0mm
01:42 30.4 °F /  -0.9 °C 28.9 °F /  -1.7 °C 23.50in /  795.7hPa Calm   -999.0mph /  -1607.7km/h 94% 0.00in /  0mm
01:57 30.6 °F /  -0.8 °C 29.3 °F /  -1.5 °C 23.50in /  795.7hPa Calm   -999.0mph /  -1607.7km/h 95% 0.00in /  0mm
02:13 30.2 °F /  -1 °C 28.9 °F /  -1.7 °C 23.50in /  795.7hPa Calm   -999.0mph /  -1607.7km/h 95% 0.00in /  0mm
02:28 29.8 °F /  -1.2 °C 28.5 °F /  -1.9 °C 23.50in /  795.7hPa Calm   -999.0mph /  -1607.7km/h 95% 0.00in /  0mm
02:43 29.8 °F /  -1.2 °C 28.8 °F /  -1.8 °C 23.50in /  795.7hPa Calm   -999.0mph /  -1607.7km/h 96% 0.00in /  0mm
02:58 29.8 °F /  -1.2 °C 28.8 °F /  -1.8 °C 23.50in /  795.7hPa Calm   -999.0mph /  -1607.7km/h 96% 0.00in /  0mm
03:13 29.5 °F /  -1.4 °C 28.5 °F /  -1.9 °C 23.49in /  795.4hPa Calm   -999.0mph /  -1607.7km/h 96% 0.00in /  0mm
03:29 29.5 °F /  -1.4 °C 28.8 °F /  -1.8 °C 23.49in /  795.4hPa Calm   -999.0mph /  -1607.7km/h 97% 0.00in /  0mm
03:44 29.5 °F /  -1.4 °C 28.8 °F /  -1.8 °C 23.49in /  795.4hPa Calm   -999.0mph /  -1607.7km/h 97% 0.00in /  0mm
03:59 29.1 °F /  -1.6 °C 28.4 °F /  -2 °C 23.48in /  795hPa Calm   -999.0mph /  -1607.7km/h 97% 0.00in /  0mm
04:14 28.8 °F /  -1.8 °C 28.1 °F /  -2.2 °C 23.49in /  795.4hPa Calm   -999.0mph /  -1607.7km/h 97% 0.00in /  0mm
04:29 29.1 °F /  -1.6 °C 28.6 °F /  -1.9 °C 23.48in /  795hPa Calm   -999.0mph /  -1607.7km/h 98% 0.00in /  0mm
04:45 28.9 °F /  -1.7 °C 28.4 °F /  -2 °C 23.48in /  795hPa Calm   -999.0mph /  -1607.7km/h 98% 0.00in /  0mm
05:00 28.8 °F /  -1.8 °C 28.3 °F /  -2.1 °C 23.48in /  795hPa Calm   -999.0mph /  -1607.7km/h 98% 0.00in /  0mm
05:15 28.4 °F /  -2 °C 27.9 °F /  -2.3 °C 23.48in /  795hPa Calm   -999.0mph /  -1607.7km/h 98% 0.00in /  0mm
05:30 28.6 °F /  -1.9 °C 28.1 °F /  -2.2 °C 23.48in /  795hPa Calm   -999.0mph /  -1607.7km/h 98% 0.00in /  0mm
05:46 28.6 °F /  -1.9 °C 28.1 °F /  -2.2 °C 23.48in /  795hPa Calm   -999.0mph /  -1607.7km/h 98% 0.00in /  0mm
06:01 28.0 °F /  -2.2 °C 27.5 °F /  -2.5 °C 23.48in /  795hPa Calm   -999.0mph /  -1607.7km/h 98% 0.00in /  0mm
06:17 28.0 °F /  -2.2 °C 27.5 °F /  -2.5 °C 23.48in /  795hPa Calm   -999.0mph /  -1607.7km/h 98% 0.00in /  0mm
06:32 28.2 °F /  -2.1 °C 27.7 °F /  -2.4 °C 23.48in /  795hPa Calm   -999.0mph /  -1607.7km/h 98% 0.00in /  0mm
06:47 28.2 °F /  -2.1 °C 27.7 °F /  -2.4 °C 23.48in /  795hPa Calm   -999.0mph /  -1607.7km/h 98% 0.00in /  0mm
07:02 28.0 °F /  -2.2 °C 27.5 °F /  -2.5 °C 23.48in /  795hPa Calm   -999.0mph /  -1607.7km/h 98% 0.00in /  0mm
07:17 28.6 °F /  -1.9 °C 28.4 °F /  -2 °C 23.49in /  795.4hPa Calm   -999.0mph /  -1607.7km/h 99% 0.00in /  0mm
07:33 28.6 °F /  -1.9 °C 28.4 °F /  -2 °C 23.49in /  795.4hPa Calm   -999.0mph /  -1607.7km/h 99% 0.00in /  0mm
07:48 29.3 °F /  -1.5 °C 29.1 °F /  -1.6 °C 23.49in /  795.4hPa Calm   -999.0mph /  -1607.7km/h 99% 0.00in /  0mm
08:03 30.0 °F /  -1.1 °C 29.8 °F /  -1.2 °C 23.49in /  795.4hPa Calm   -999.0mph /  -1607.7km/h 99% 0.00in /  0mm
08:18 32.0 °F /  0 °C 31.8 °F /  -0.1 °C 23.50in /  795.7hPa Calm   -999.0mph /  -1607.7km/h 99% 0.00in /  0mm
08:34 33.3 °F /  0.7 °C 32.5 °F /  0.3 °C 23.49in /  795.4hPa Calm   -999.0mph /  -1607.7km/h 97% 0.00in /  0mm
08:49 34.0 °F /  1.1 °C 33.2 °F /  0.7 °C 23.50in /  795.7hPa Calm   -999.0mph /  -1607.7km/h 97% 0.00in /  0mm
09:04 35.1 °F /  1.7 °C 34.3 °F /  1.3 °C 23.49in /  795.4hPa Calm   -999.0mph /  -1607.7km/h 97% 0.00in /  0mm
09:20 36.0 °F /  2.2 °C 35.0 °F /  1.7 °C 23.49in /  795.4hPa Calm   -999.0mph /  -1607.7km/h 96% 0.00in /  0mm
09:35 37.9 °F /  3.3 °C 34.9 °F /  1.6 °C 23.50in /  795.7hPa Calm   -999.0mph /  -1607.7km/h 89% 0.00in /  0mm
09:50 43.5 °F /  6.4 °C 30.1 °F /  -1.1 °C 23.49in /  795.4hPa South 1.1mph /  1.8km/h -999.0mph /  -1607.7km/h 59% 0.00in /  0mm
10:05 45.1 °F /  7.3 °C 29.9 °F /  -1.2 °C 23.49in /  795.4hPa Calm   -999.0mph /  -1607.7km/h 55% 0.00in /  0mm
10:21 47.7 °F /  8.7 °C 27.4 °F /  -2.6 °C 23.49in /  795.4hPa Calm   -999.0mph /  -1607.7km/h 45% 0.00in /  0mm
10:36 48.7 °F /  9.3 °C 28.8 °F /  -1.8 °C 23.49in /  795.4hPa Calm   -999.0mph /  -1607.7km/h 46% 0.00in /  0mm
10:52 50.2 °F /  10.1 °C 27.4 °F /  -2.6 °C 23.49in /  795.4hPa SSW 1.7mph /  2.7km/h -999.0mph /  -1607.7km/h 41% 0.00in /  0mm
11:07 52.0 °F /  11.1 °C 31.3 °F /  -0.4 °C 23.49in /  795.4hPa Calm   -999.0mph /  -1607.7km/h 45% 0.00in /  0mm
11:22 52.7 °F /  11.5 °C 29.6 °F /  -1.3 °C 23.49in /  795.4hPa Calm   -999.0mph /  -1607.7km/h 41% 0.00in /  0mm
11:37 55.6 °F /  13.1 °C 32.9 °F /  0.5 °C 23.48in /  795hPa Calm   -999.0mph /  -1607.7km/h 42% 0.00in /  0mm
11:52 54.5 °F /  12.5 °C 32.5 °F /  0.3 °C 23.48in /  795hPa ESE 2.2mph /  3.5km/h -999.0mph /  -1607.7km/h 43% 0.00in /  0mm
12:07 55.2 °F /  12.9 °C 32.5 °F /  0.3 °C 23.48in /  795hPa SSW 2.7mph /  4.3km/h -999.0mph /  -1607.7km/h 42% 0.00in /  0mm
12:23 56.7 °F /  13.7 °C 34.4 °F /  1.3 °C 23.48in /  795hPa West 4.7mph /  7.6km/h -999.0mph /  -1607.7km/h 43% 0.00in /  0mm
12:38 56.8 °F /  13.8 °C 35.1 °F /  1.7 °C 23.48in /  795hPa Calm   -999.0mph /  -1607.7km/h 44% 0.00in /  0mm
12:53 54.7 °F /  12.6 °C 33.8 °F /  1 °C 23.47in /  794.7hPa Calm   -999.0mph /  -1607.7km/h 45% 0.00in /  0mm
13:09 54.9 °F /  12.7 °C 33.9 °F /  1.1 °C 23.47in /  794.7hPa Calm   -999.0mph /  -1607.7km/h 45% 0.00in /  0mm
13:24 52.9 °F /  11.6 °C 33.7 °F /  0.9 °C 23.46in /  794.4hPa NNW 1.1mph /  1.8km/h -999.0mph /  -1607.7km/h 48% 0.00in /  0mm
13:39 52.9 °F /  11.6 °C 34.3 °F /  1.3 °C 23.46in /  794.4hPa South 1.1mph /  1.8km/h -999.0mph /  -1607.7km/h 49% 0.00in /  0mm
13:55 52.3 °F /  11.3 °C 35.2 °F /  1.8 °C 23.45in /  794hPa SSW 2.7mph /  4.3km/h -999.0mph /  -1607.7km/h 52% 0.00in /  0mm
14:10 54.3 °F /  12.4 °C 35.5 °F /  1.9 °C 23.44in /  793.7hPa Calm   -999.0mph /  -1607.7km/h 49% 0.00in /  0mm
14:25 53.1 °F /  11.7 °C 35.9 °F /  2.2 °C 23.44in /  793.7hPa Calm   -999.0mph /  -1607.7km/h 52% 0.00in /  0mm
14:40 54.1 °F /  12.3 °C 34.8 °F /  1.6 °C 23.43in /  793.3hPa Calm   -999.0mph /  -1607.7km/h 48% 0.00in /  0mm
14:55 53.4 °F /  11.9 °C 37.2 °F /  2.9 °C 23.43in /  793.3hPa Calm   -999.0mph /  -1607.7km/h 54% 0.00in /  0mm
15:11 52.0 °F /  11.1 °C 40.6 °F /  4.8 °C 23.44in /  793.7hPa Calm   -999.0mph /  -1607.7km/h 65% 0.00in /  0mm
15:26 51.1 °F /  10.6 °C 40.9 °F /  4.9 °C 23.43in /  793.3hPa South 4.2mph /  6.8km/h -999.0mph /  -1607.7km/h 68% 0.00in /  0mm
15:41 49.6 °F /  9.8 °C 40.6 °F /  4.8 °C 23.43in /  793.3hPa Calm   -999.0mph /  -1607.7km/h 71% 0.00in /  0mm
15:57 51.6 °F /  10.9 °C 41.8 °F /  5.4 °C 23.43in /  793.3hPa Calm   -999.0mph /  -1607.7km/h 69% 0.00in /  0mm
16:12 50.9 °F /  10.5 °C 41.1 °F /  5.1 °C 23.43in /  793.3hPa Calm   -999.0mph /  -1607.7km/h 69% 0.00in /  0mm
16:27 49.6 °F /  9.8 °C 40.9 °F /  4.9 °C 23.43in /  793.3hPa East 1.7mph /  2.7km/h -999.0mph /  -1607.7km/h 72% 0.00in /  0mm
16:43 49.6 °F /  9.8 °C 40.9 °F /  4.9 °C 23.42in /  793hPa Calm   -999.0mph /  -1607.7km/h 72% 0.00in /  0mm
16:58 50.0 °F /  10 °C 41.3 °F /  5.2 °C 23.42in /  793hPa Calm   -999.0mph /  -1607.7km/h 72% 0.00in /  0mm
17:13 50.4 °F /  10.2 °C 41.0 °F /  5 °C 23.41in /  792.7hPa Calm   -999.0mph /  -1607.7km/h 70% 0.00in /  0mm
17:28 49.5 °F /  9.7 °C 40.5 °F /  4.7 °C 23.41in /  792.7hPa Calm   -999.0mph /  -1607.7km/h 71% 0.00in /  0mm
17:44 46.6 °F /  8.1 °C 40.1 °F /  4.5 °C 23.42in /  793hPa SSW 2.7mph /  4.3km/h -999.0mph /  -1607.7km/h 78% 0.00in /  0mm
17:59 45.0 °F /  7.2 °C 39.2 °F /  4 °C 23.42in /  793hPa Calm   -999.0mph /  -1607.7km/h 80% 0.00in /  0mm
18:14 43.5 °F /  6.4 °C 36.8 °F /  2.7 °C 23.42in /  793hPa Calm   -999.0mph /  -1607.7km/h 77% 0.00in /  0mm
18:29 42.4 °F /  5.8 °C 34.7 °F /  1.5 °C 23.42in /  793hPa Calm   -999.0mph /  -1607.7km/h 74% 0.00in /  0mm
18:45 41.5 °F /  5.3 °C 32.8 °F /  0.4 °C 23.42in /  793hPa SSW 4.7mph /  7.6km/h -999.0mph /  -1607.7km/h 71% 0.00in /  0mm
19:00 41.0 °F /  5 °C 30.9 °F /  -0.6 °C 23.42in /  793hPa South 5.8mph /  9.3km/h -999.0mph /  -1607.7km/h 67% 0.00in /  0mm
19:15 40.6 °F /  4.8 °C 30.5 °F /  -0.8 °C 23.42in /  793hPa SSW 3.2mph /  5.1km/h -999.0mph /  -1607.7km/h 67% 0.00in /  0mm
19:30 39.9 °F /  4.4 °C 29.8 °F /  -1.2 °C 23.42in /  793hPa SSW 4.2mph /  6.8km/h -999.0mph /  -1607.7km/h 67% 0.00in /  0mm
19:46 39.4 °F /  4.1 °C 31.1 °F /  -0.5 °C 23.42in /  793hPa SW 2.7mph /  4.3km/h -999.0mph /  -1607.7km/h 72% 0.00in /  0mm
20:01 38.8 °F /  3.8 °C 32.8 °F /  0.4 °C 23.42in /  793hPa ESE 4.7mph /  7.6km/h -999.0mph /  -1607.7km/h 79% 0.00in /  0mm
20:16 38.3 °F /  3.5 °C 32.7 °F /  0.4 °C 23.42in /  793hPa SE 4.2mph /  6.8km/h -999.0mph /  -1607.7km/h 80% 0.00in /  0mm
20:32 37.8 °F /  3.2 °C 32.2 °F /  0.1 °C 23.42in /  793hPa Calm   -999.0mph /  -1607.7km/h 80% 0.00in /  0mm
20:47 37.6 °F /  3.1 °C 30.7 °F /  -0.7 °C 23.42in /  793hPa SSW 2.7mph /  4.3km/h -999.0mph /  -1607.7km/h 76% 0.00in /  0mm
21:02 37.8 °F /  3.2 °C 29.6 °F /  -1.3 °C 23.42in /  793hPa South 4.7mph /  7.6km/h -999.0mph /  -1607.7km/h 72% 0.00in /  0mm
21:17 37.8 °F /  3.2 °C 25.6 °F /  -3.6 °C 23.42in /  793hPa WSW 3.2mph /  5.1km/h -999.0mph /  -1607.7km/h 61% 0.00in /  0mm
21:33 37.9 °F /  3.3 °C 24.8 °F /  -4 °C 23.42in /  793hPa South 3.7mph /  6km/h -999.0mph /  -1607.7km/h 59% 0.00in /  0mm
21:48 37.8 °F /  3.2 °C 27.1 °F /  -2.7 °C 23.42in /  793hPa SW 1.1mph /  1.8km/h -999.0mph /  -1607.7km/h 65% 0.00in /  0mm
22:04 37.2 °F /  2.9 °C 29.0 °F /  -1.7 °C 23.41in /  792.7hPa South 1.7mph /  2.7km/h -999.0mph /  -1607.7km/h 72% 0.00in /  0mm
22:19 36.9 °F /  2.7 °C 31.0 °F /  -0.6 °C 23.42in /  793hPa West 2.7mph /  4.3km/h -999.0mph /  -1607.7km/h 79% 0.00in /  0mm
22:34 36.1 °F /  2.3 °C 31.7 °F /  -0.2 °C 23.41in /  792.7hPa SSE 3.7mph /  6km/h -999.0mph /  -1607.7km/h 84% 0.00in /  0mm
22:49 35.6 °F /  2 °C 31.2 °F /  -0.4 °C 23.40in /  792.3hPa South 4.2mph /  6.8km/h -999.0mph /  -1607.7km/h 84% 0.00in /  0mm
23:05 35.2 °F /  1.8 °C 31.1 °F /  -0.5 °C 23.41in /  792.7hPa SSW 5.3mph /  8.5km/h -999.0mph /  -1607.7km/h 85% 0.00in /  0mm
23:20 34.7 °F /  1.5 °C 28.5 °F /  -1.9 °C 23.40in /  792.3hPa SW 3.7mph /  6km/h -999.0mph /  -1607.7km/h 78% 0.00in /  0mm
23:35 34.3 °F /  1.3 °C 29.7 °F /  -1.3 °C 23.40in /  792.3hPa WSW 4.2mph /  6.8km/h -999.0mph /  -1607.7km/h 83% 0.00in /  0mm
23:50 34.2 °F /  1.2 °C 29.3 °F /  -1.5 °C 23.40in /  792.3hPa ESE 3.7mph /  6km/h -999.0mph /  -1607.7km/h 82% 0.00in /  0mm
Big Bear CA Weather